createdAt,value
2023-01-04T00:01:23.874Z,3.56
2023-01-04T00:02:57.593Z,3.44
2023-01-04T00:04:29.773Z,3.35
2023-01-04T00:06:05.661Z,3.30
2023-01-04T00:07:38.972Z,3.28
2023-01-04T00:09:13.914Z,3.18
2023-01-04T00:10:46.091Z,3.23
2023-01-04T00:12:19.265Z,3.21
2023-01-04T00:13:54.117Z,3.23
2023-01-04T00:15:27.703Z,3.20
2023-01-04T00:17:00.831Z,3.18
2023-01-04T00:18:34.044Z,3.19
2023-01-04T00:20:07.406Z,3.19
2023-01-04T00:21:40.848Z,3.21
2023-01-04T00:23:13.258Z,3.21
2023-01-04T00:24:47.782Z,3.24
2023-01-04T00:26:22.858Z,3.28
2023-01-04T00:27:56.366Z,3.31
2023-01-04T00:29:29.621Z,3.31
2023-01-04T00:31:04.465Z,3.27
2023-01-04T00:32:37.699Z,3.25
2023-01-04T00:34:14.198Z,3.21
2023-01-04T00:35:46.698Z,3.13
2023-01-04T00:37:19.976Z,3.09
2023-01-04T00:39:08.028Z,3.01
2023-01-04T00:40:43.657Z,3.02
2023-01-04T00:42:16.788Z,2.98
2023-01-04T00:43:49.272Z,3.01
2023-01-04T00:45:22.428Z,3.01
2023-01-04T00:46:55.854Z,2.96
2023-01-04T00:48:28.171Z,2.94
2023-01-04T00:50:01.687Z,2.89
2023-01-04T00:51:36.693Z,2.87
2023-01-04T00:53:11.187Z,2.84
2023-01-04T00:54:44.357Z,2.82
2023-01-04T00:56:18.009Z,2.88
2023-01-04T00:57:51.120Z,2.91
2023-01-04T00:59:24.787Z,2.93
2023-01-04T01:00:57.913Z,2.94
2023-01-04T01:02:31.121Z,2.97
2023-01-04T01:04:05.847Z,2.97
2023-01-04T01:05:39.693Z,2.98
2023-01-04T01:07:12.930Z,2.97
2023-01-04T01:08:46.129Z,2.96
2023-01-04T01:10:19.314Z,2.90
2023-01-04T01:11:55.361Z,2.91
2023-01-04T01:13:27.453Z,2.90
2023-01-04T01:15:00.964Z,2.93
2023-01-04T01:18:27.926Z,2.96
2023-01-04T01:20:01.511Z,2.98
2023-01-04T01:21:34.720Z,2.98
2023-01-04T01:23:07.884Z,2.95
2023-01-04T01:24:41.313Z,2.89
2023-01-04T01:26:17.068Z,2.85
2023-01-04T01:27:51.516Z,2.82
2023-01-04T01:29:25.115Z,2.80
2023-01-04T01:31:03.811Z,2.73
2023-01-04T01:32:39.815Z,2.71
2023-01-04T01:34:12.916Z,2.64
2023-01-04T01:35:46.155Z,2.60
2023-01-04T01:37:19.552Z,2.58
2023-01-04T01:38:52.719Z,2.58
2023-01-04T01:40:25.816Z,2.54
2023-01-04T01:41:59.589Z,2.50
2023-01-04T01:43:52.819Z,2.54
2023-01-04T01:45:30.044Z,2.56
2023-01-04T01:47:03.416Z,2.57
2023-01-04T01:48:36.735Z,2.54
2023-01-04T01:50:21.786Z,2.56
2023-01-04T01:51:57.667Z,2.59
2023-01-04T01:53:33.650Z,2.62
2023-01-04T01:55:12.185Z,2.54
2023-01-04T01:56:51.030Z,2.50
2023-01-04T01:58:29.739Z,2.50
2023-01-04T02:00:08.602Z,2.53
2023-01-04T02:01:48.568Z,2.54
2023-01-04T02:03:25.284Z,2.54
2023-01-04T02:05:01.103Z,2.59
2023-01-04T02:06:36.871Z,2.66
2023-01-04T02:08:12.181Z,2.75
2023-01-04T02:09:46.406Z,2.80
2023-01-04T02:11:19.825Z,2.86
2023-01-04T02:12:53.873Z,2.94
2023-01-04T02:14:29.962Z,3.01
2023-01-04T02:16:14.282Z,3.01
2023-01-04T02:17:55.589Z,3.04
2023-01-04T02:19:57.907Z,3.04
2023-01-04T02:21:42.266Z,3.00
2023-01-04T02:23:36.777Z,3.03
2023-01-04T02:25:34.376Z,2.98
2023-01-04T02:27:36.329Z,2.90
2023-01-04T02:29:44.782Z,2.84
2023-01-04T02:31:33.321Z,2.74
2023-01-04T02:33:26.118Z,2.69
2023-01-04T02:35:08.602Z,2.61
2023-01-04T02:36:53.908Z,2.46
2023-01-04T02:38:32.013Z,2.42
2023-01-04T02:40:11.605Z,2.36
2023-01-04T02:41:50.860Z,2.33
2023-01-04T02:43:50.064Z,2.34
2023-01-04T02:45:29.304Z,2.41
2023-01-04T02:47:08.130Z,2.41
2023-01-04T02:49:08.133Z,2.45
2023-01-04T02:50:51.072Z,2.44
2023-01-04T02:52:24.959Z,2.44
2023-01-04T02:54:01.319Z,2.42
2023-01-04T02:55:48.489Z,2.39
2023-01-04T02:57:34.951Z,2.36
2023-01-04T02:59:29.389Z,2.32
2023-01-04T03:01:30.181Z,2.27
2023-01-04T03:03:36.159Z,2.31
2023-01-04T03:05:52.278Z,2.31
2023-01-04T03:07:30.454Z,2.28
2023-01-04T03:09:10.249Z,2.21
2023-01-04T03:10:49.052Z,2.13
2023-01-04T03:12:32.488Z,2.14
2023-01-04T03:14:32.368Z,2.11
2023-01-04T03:16:09.673Z,2.11
2023-01-04T03:17:47.557Z,2.11
2023-01-04T03:19:48.941Z,2.14
2023-01-04T03:21:27.248Z,2.17
2023-01-04T03:23:21.105Z,2.21
2023-01-04T03:25:13.450Z,2.18
2023-01-04T03:27:21.655Z,2.22
2023-01-04T03:29:14.730Z,2.14
2023-01-04T03:31:12.265Z,2.25
2023-01-04T03:33:11.354Z,2.21
2023-01-04T03:35:03.758Z,2.30
2023-01-04T03:36:48.114Z,2.25
2023-01-04T03:38:48.438Z,2.26
2023-01-04T03:40:45.079Z,2.26
2023-01-04T03:42:41.972Z,2.23
2023-01-04T03:44:39.907Z,2.23
2023-01-04T03:46:36.792Z,2.27
2023-01-04T03:48:31.658Z,2.25
2023-01-04T03:50:13.397Z,2.28
2023-01-04T03:51:48.477Z,2.31
2023-01-04T03:53:22.235Z,2.21
2023-01-04T03:54:56.772Z,2.08
2023-01-04T03:56:37.182Z,1.97
2023-01-04T03:58:10.788Z,1.90
2023-01-04T03:59:49.425Z,1.84
2023-01-04T04:01:25.118Z,1.77
2023-01-04T04:03:07.350Z,1.62
2023-01-04T04:04:58.954Z,1.61
2023-01-04T04:06:50.775Z,1.49
2023-01-04T04:08:30.358Z,1.41
2023-01-04T04:10:03.690Z,1.40
2023-01-04T04:11:36.885Z,1.38
2023-01-04T04:13:10.007Z,1.39
2023-01-04T04:14:43.331Z,1.37
2023-01-04T04:16:16.863Z,1.36
2023-01-04T04:17:50.365Z,1.40
2023-01-04T04:19:23.598Z,1.46
2023-01-04T04:20:58.126Z,1.50
2023-01-04T04:22:33.103Z,1.54
2023-01-04T04:24:07.298Z,1.58
2023-01-04T04:25:39.634Z,1.61
2023-01-04T04:27:13.266Z,1.61
2023-01-04T04:28:46.542Z,1.66
2023-01-04T04:30:19.155Z,1.59
2023-01-04T04:31:52.538Z,1.70
2023-01-04T04:33:26.071Z,1.72
2023-01-04T04:34:59.293Z,1.75
2023-01-04T04:36:32.721Z,1.78
2023-01-04T04:38:07.463Z,1.75
2023-01-04T04:39:40.708Z,1.74
2023-01-04T04:41:33.527Z,1.72
2023-01-04T04:43:08.508Z,1.70
2023-01-04T04:44:41.716Z,1.64
2023-01-04T04:46:14.905Z,1.68
2023-01-04T04:47:48.307Z,1.66
2023-01-04T04:49:21.913Z,1.61
2023-01-04T04:50:54.127Z,1.61
2023-01-04T04:52:27.328Z,1.61
2023-01-04T04:54:02.432Z,1.60
2023-01-04T04:55:34.759Z,1.61
2023-01-04T04:57:07.930Z,1.62
2023-01-04T04:58:41.755Z,1.63
2023-01-04T05:00:16.211Z,1.60
2023-01-04T05:01:49.614Z,1.48
2023-01-04T05:03:22.040Z,1.48
2023-01-04T05:04:55.451Z,1.50
2023-01-04T05:06:29.419Z,1.54
2023-01-04T05:08:02.869Z,1.62
2023-01-04T05:09:37.335Z,1.61
2023-01-04T05:11:11.957Z,1.65
2023-01-04T05:13:02.232Z,1.70
2023-01-04T05:14:34.585Z,1.69
2023-01-04T05:16:10.486Z,1.66
2023-01-04T05:17:43.636Z,1.53
2023-01-04T05:19:17.180Z,1.55
2023-01-04T05:20:51.000Z,1.55
2023-01-04T05:22:23.186Z,1.56
2023-01-04T05:23:56.547Z,1.63
2023-01-04T05:25:31.458Z,1.70
2023-01-04T05:27:03.671Z,1.75
2023-01-04T05:28:36.971Z,1.81
2023-01-04T05:30:30.249Z,1.83
2023-01-04T05:32:02.559Z,1.87
2023-01-04T05:33:35.796Z,1.86
2023-01-04T05:35:08.540Z,1.89
2023-01-04T05:36:41.729Z,1.94
2023-01-04T05:38:14.391Z,1.96
2023-01-04T05:39:47.767Z,1.99
2023-01-04T05:41:39.588Z,2.01
2023-01-04T05:43:13.820Z,2.05
2023-01-04T05:44:46.221Z,2.09
2023-01-04T05:46:19.513Z,2.13
2023-01-04T05:47:54.131Z,2.12
2023-01-04T05:49:27.389Z,2.13
2023-01-04T05:51:00.917Z,2.18
2023-01-04T05:52:34.065Z,2.21
2023-01-04T05:54:07.221Z,2.20
2023-01-04T05:55:41.124Z,2.13
2023-01-04T05:57:15.505Z,2.07
2023-01-04T05:58:48.716Z,2.03
2023-01-04T06:00:21.887Z,2.03
2023-01-04T06:01:54.720Z,2.00
2023-01-04T06:03:30.791Z,1.97
2023-01-04T06:05:04.289Z,1.98
2023-01-04T06:06:37.475Z,2.01
2023-01-04T06:08:10.893Z,1.95
2023-01-04T06:09:44.353Z,2.01
2023-01-04T06:11:21.329Z,1.97
2023-01-04T06:12:58.601Z,1.99
2023-01-04T06:14:30.729Z,2.04
2023-01-04T06:16:06.439Z,2.02
2023-01-04T06:17:40.756Z,2.00
2023-01-04T06:19:13.109Z,2.01
2023-01-04T06:20:46.241Z,2.04
2023-01-04T06:22:19.519Z,2.06
2023-01-04T06:23:52.975Z,2.05
2023-01-04T06:25:26.153Z,2.05
2023-01-04T06:26:58.269Z,2.07
2023-01-04T06:28:37.141Z,2.12
2023-01-04T06:30:14.091Z,2.18
2023-01-04T06:31:47.310Z,2.23
2023-01-04T06:33:20.459Z,2.27
2023-01-04T06:34:54.213Z,2.30
2023-01-04T06:36:27.457Z,2.41
2023-01-04T06:38:00.634Z,2.43
2023-01-04T06:39:33.869Z,2.41
2023-01-04T06:41:07.187Z,2.32
2023-01-04T06:42:46.316Z,2.35
2023-01-04T06:44:20.899Z,2.41
2023-01-04T06:45:54.107Z,2.46
2023-01-04T06:47:27.403Z,2.46
2023-01-04T06:49:00.908Z,2.43
2023-01-04T06:50:34.137Z,2.49
2023-01-04T06:52:07.345Z,2.55
2023-01-04T06:53:40.529Z,2.58
2023-01-04T06:55:14.013Z,2.59
2023-01-04T06:56:47.122Z,2.64
2023-01-04T06:58:20.511Z,2.63
2023-01-04T06:59:55.128Z,2.65
2023-01-04T07:01:28.345Z,2.73
2023-01-04T07:03:15.297Z,2.76
2023-01-04T07:04:49.285Z,2.79
2023-01-04T07:06:22.701Z,2.77
2023-01-04T07:07:55.823Z,2.81
2023-01-04T07:09:29.009Z,2.82
2023-01-04T07:11:02.482Z,2.85
2023-01-04T07:12:36.371Z,2.84
2023-01-04T07:14:09.711Z,2.82
2023-01-04T07:15:44.426Z,2.76
2023-01-04T07:17:17.587Z,2.77
2023-01-04T07:18:51.255Z,2.80
2023-01-04T07:20:24.708Z,2.88
2023-01-04T07:21:58.918Z,2.92
2023-01-04T07:23:32.180Z,2.97
2023-01-04T07:25:06.049Z,3.03
2023-01-04T07:26:39.556Z,3.08
2023-01-04T07:28:12.874Z,3.13
2023-01-04T07:29:45.110Z,3.12
2023-01-04T07:31:19.855Z,3.05
2023-01-04T07:32:54.256Z,3.01
2023-01-04T07:34:28.452Z,3.02
2023-01-04T07:36:06.725Z,3.15
2023-01-04T07:37:40.205Z,3.24
2023-01-04T07:39:13.708Z,3.33
2023-01-04T07:40:55.936Z,3.42
2023-01-04T07:42:30.446Z,3.45
2023-01-04T07:44:03.795Z,3.44
2023-01-04T07:45:39.763Z,3.43
2023-01-04T07:47:14.467Z,3.45
2023-01-04T07:48:47.643Z,3.51
2023-01-04T07:50:21.079Z,3.60
2023-01-04T07:51:54.469Z,3.63
2023-01-04T07:53:27.671Z,3.51
2023-01-04T07:55:00.805Z,3.57
2023-01-04T07:56:34.071Z,3.58
2023-01-04T07:58:07.486Z,3.59
2023-01-04T07:59:41.552Z,3.64
2023-01-04T08:01:16.880Z,3.57
2023-01-04T08:02:51.915Z,3.57
2023-01-04T08:04:31.069Z,3.58
2023-01-04T08:06:09.141Z,3.57
2023-01-04T08:07:42.612Z,3.58
2023-01-04T08:09:15.874Z,3.60
2023-01-04T08:10:49.008Z,3.68
2023-01-04T08:12:22.267Z,3.73
2023-01-04T08:13:55.653Z,3.72
2023-01-04T08:15:29.044Z,3.72
2023-01-04T08:17:02.282Z,3.82
2023-01-04T08:18:36.779Z,3.88
2023-01-04T08:20:10.540Z,3.83
2023-01-04T08:21:43.997Z,3.86
2023-01-04T08:23:17.549Z,4.00
2023-01-04T08:24:50.659Z,4.24
2023-01-04T08:26:24.448Z,4.47
2023-01-04T08:27:57.834Z,4.76
2023-01-04T08:29:34.997Z,5.09
2023-01-04T08:31:12.150Z,5.38
2023-01-04T08:32:45.374Z,5.49
2023-01-04T08:34:20.084Z,5.58
2023-01-04T08:35:53.457Z,5.62
2023-01-04T08:37:26.585Z,5.72
2023-01-04T08:39:02.085Z,6.02
2023-01-04T08:40:58.276Z,6.25
2023-01-04T08:42:31.882Z,6.26
2023-01-04T08:44:05.319Z,6.33
2023-01-04T08:45:38.884Z,6.45
2023-01-04T08:47:12.083Z,6.43
2023-01-04T08:48:45.523Z,6.71
2023-01-04T08:50:20.604Z,7.01
2023-01-04T08:51:53.915Z,7.20
2023-01-04T08:53:27.397Z,7.21
2023-01-04T08:55:00.707Z,7.30
2023-01-04T08:56:33.869Z,7.32
2023-01-04T08:58:07.698Z,7.26
2023-01-04T08:59:42.914Z,7.29
2023-01-04T09:01:16.269Z,7.28
2023-01-04T09:02:49.716Z,7.13
2023-01-04T09:04:23.171Z,7.21
2023-01-04T09:06:03.743Z,6.95
2023-01-04T09:07:36.952Z,6.90
2023-01-04T09:09:10.140Z,6.94
2023-01-04T09:10:43.594Z,6.98
2023-01-04T09:12:16.727Z,7.03
2023-01-04T09:13:50.947Z,7.02
2023-01-04T09:15:24.233Z,6.93
2023-01-04T09:16:57.593Z,6.88
2023-01-04T09:18:32.745Z,6.87
2023-01-04T09:20:07.115Z,6.91
2023-01-04T09:21:41.720Z,6.88
2023-01-04T09:23:15.254Z,6.95
2023-01-04T09:24:48.745Z,6.96
2023-01-04T09:26:23.669Z,6.95
2023-01-04T09:27:58.200Z,6.89
2023-01-04T09:29:31.871Z,6.90
2023-01-04T09:31:08.664Z,6.89
2023-01-04T09:32:41.940Z,6.93
2023-01-04T09:34:17.476Z,7.00
2023-01-04T09:35:51.191Z,7.11
2023-01-04T09:37:29.710Z,7.17
2023-01-04T09:39:02.926Z,7.21
2023-01-04T09:40:55.809Z,7.30
2023-01-04T09:42:37.585Z,7.33
2023-01-04T09:44:19.011Z,7.36
2023-01-04T09:45:59.548Z,7.36
2023-01-04T09:47:40.190Z,7.44
2023-01-04T09:49:19.822Z,7.51
2023-01-04T09:50:57.545Z,7.52
2023-01-04T09:52:41.948Z,7.51
2023-01-04T09:54:20.764Z,7.60
2023-01-04T09:55:57.233Z,7.54
2023-01-04T09:57:34.029Z,7.55
2023-01-04T09:59:13.469Z,7.57
2023-01-04T10:00:49.988Z,7.62
2023-01-04T10:02:30.536Z,7.65
2023-01-04T10:04:13.113Z,7.68
2023-01-04T10:05:46.575Z,7.75
2023-01-04T10:07:25.142Z,7.80
2023-01-04T10:09:04.450Z,7.78
2023-01-04T10:10:50.249Z,7.77
2023-01-04T10:12:40.636Z,7.78
2023-01-04T10:14:31.458Z,7.78
2023-01-04T10:16:17.592Z,7.74
2023-01-04T10:22:43.889Z,7.52
2023-01-04T10:24:37.952Z,7.56
2023-01-04T10:26:14.791Z,7.61
2023-01-04T10:27:55.870Z,7.69
2023-01-04T10:29:41.172Z,7.81
2023-01-04T10:31:40.100Z,7.82
2023-01-04T10:33:15.000Z,7.97
2023-01-04T10:34:49.065Z,7.97
2023-01-04T10:36:24.485Z,8.06
2023-01-04T10:38:00.407Z,8.11
2023-01-04T10:39:37.081Z,8.13
2023-01-04T10:41:15.221Z,8.14
2023-01-04T10:42:57.930Z,8.25
2023-01-04T10:44:40.081Z,8.33
2023-01-04T10:46:19.219Z,8.41
2023-01-04T10:48:02.431Z,8.51
2023-01-04T10:49:43.160Z,8.60
2023-01-04T10:51:22.348Z,8.71
2023-01-04T10:53:01.473Z,8.78
2023-01-04T10:54:40.815Z,8.86
2023-01-04T10:56:26.299Z,8.91
2023-01-04T10:58:05.389Z,8.99
2023-01-04T10:59:44.555Z,9.07
2023-01-04T11:01:23.981Z,9.10
2023-01-04T11:03:08.547Z,9.25
2023-01-04T11:04:48.117Z,9.43
2023-01-04T11:06:25.012Z,9.63
2023-01-04T11:08:02.471Z,9.85
2023-01-04T11:09:43.659Z,10.02
2023-01-04T11:11:25.567Z,10.21
2023-01-04T11:12:59.198Z,10.32
2023-01-04T11:14:37.247Z,10.40
2023-01-04T11:16:11.159Z,10.50
2023-01-04T11:17:45.291Z,10.56
2023-01-04T11:19:18.672Z,10.63
2023-01-04T11:20:52.888Z,10.69
2023-01-04T11:22:30.753Z,10.72
2023-01-04T11:24:31.013Z,10.76
2023-01-04T11:26:09.787Z,10.76
2023-01-04T11:27:48.638Z,10.79
2023-01-04T11:29:33.188Z,10.82
2023-01-04T11:31:17.670Z,10.85
2023-01-04T11:32:59.605Z,10.86
2023-01-04T11:34:46.918Z,10.91
2023-01-04T11:36:34.914Z,10.92
2023-01-04T11:38:13.629Z,10.99
2023-01-04T11:39:46.878Z,11.03
2023-01-04T11:41:23.033Z,11.06
2023-01-04T11:43:13.879Z,11.06
2023-01-04T11:44:59.856Z,11.03
2023-01-04T11:46:34.580Z,11.08
2023-01-04T11:48:14.345Z,11.12
2023-01-04T11:49:48.685Z,11.15
2023-01-04T11:51:37.645Z,11.18
2023-01-04T11:53:25.298Z,11.20
2023-01-04T11:54:58.902Z,11.22
2023-01-04T11:56:35.031Z,11.26
2023-01-04T11:58:11.595Z,11.20
2023-01-04T11:59:44.804Z,11.22
2023-01-04T12:01:24.354Z,11.22
2023-01-04T12:03:12.811Z,11.19
2023-01-04T12:04:46.146Z,11.18
2023-01-04T12:06:21.824Z,11.16
2023-01-04T12:07:55.133Z,11.12
2023-01-04T12:09:30.994Z,11.17
2023-01-04T12:11:06.623Z,11.15
2023-01-04T12:12:41.132Z,11.11
2023-01-04T12:14:22.996Z,11.07
2023-01-04T12:16:05.967Z,11.05
2023-01-04T12:17:49.094Z,11.05
2023-01-04T12:19:25.969Z,11.07
2023-01-04T12:20:59.495Z,11.06
2023-01-04T12:22:36.554Z,11.09
2023-01-04T12:24:09.817Z,11.08
2023-01-04T12:25:47.008Z,11.09
2023-01-04T12:27:20.582Z,11.07
2023-01-04T12:29:33.865Z,11.06
2023-01-04T12:31:29.404Z,11.00
2023-01-04T12:33:38.738Z,11.02
2023-01-04T12:36:04.229Z,11.05
2023-01-04T12:37:49.522Z,11.04
2023-01-04T12:39:42.721Z,11.05
2023-01-04T12:41:16.129Z,11.01
2023-01-04T12:43:19.248Z,10.98
2023-01-04T12:45:16.937Z,10.97
2023-01-04T12:47:10.831Z,10.96
2023-01-04T12:49:01.527Z,10.90
2023-01-04T12:51:37.208Z,10.89
2023-01-04T12:53:56.106Z,10.92
2023-01-04T12:55:54.281Z,10.90
2023-01-04T12:57:37.303Z,10.83
2023-01-04T12:59:25.313Z,10.90
2023-01-04T13:01:25.040Z,10.86
2023-01-04T13:03:27.936Z,10.86
2023-01-04T13:05:45.414Z,10.87
2023-01-04T13:07:15.385Z,10.92
2023-01-04T13:08:50.845Z,10.95
2023-01-04T13:10:33.718Z,10.99
2023-01-04T13:12:16.802Z,11.02
2023-01-04T13:13:57.094Z,11.00
2023-01-04T13:15:48.446Z,10.99
2023-01-04T13:17:23.615Z,10.93
2023-01-04T13:18:58.440Z,10.97
2023-01-04T13:20:31.856Z,10.93
2023-01-04T13:22:17.017Z,10.89
2023-01-04T13:23:52.809Z,10.84
2023-01-04T13:25:26.409Z,10.77
2023-01-04T13:27:07.068Z,10.80
2023-01-04T13:28:40.385Z,10.77
2023-01-04T13:30:32.768Z,10.80
2023-01-04T13:32:11.684Z,10.77
2023-01-04T13:33:47.991Z,10.76
2023-01-04T13:35:21.916Z,10.75
2023-01-04T13:37:05.894Z,10.72
2023-01-04T13:38:41.759Z,10.69
2023-01-04T13:40:26.839Z,10.65
2023-01-04T13:42:00.708Z,10.67
2023-01-04T13:43:55.612Z,10.65
2023-01-04T13:45:46.668Z,10.63
2023-01-04T13:47:20.251Z,10.62
2023-01-04T13:48:59.425Z,10.59
2023-01-04T13:50:40.163Z,10.59
2023-01-04T13:54:23.963Z,10.59
2023-01-04T13:55:59.298Z,10.60
2023-01-04T13:57:32.900Z,10.60
2023-01-04T13:59:06.069Z,10.55
2023-01-04T14:00:49.742Z,10.60
2023-01-04T14:02:23.442Z,10.59
2023-01-04T14:04:00.453Z,10.55
2023-01-04T14:05:33.879Z,10.53
2023-01-04T14:07:07.106Z,10.49
2023-01-04T14:08:43.507Z,10.43
2023-01-04T14:10:20.763Z,10.41
2023-01-04T14:12:09.359Z,10.47
2023-01-04T14:13:47.367Z,10.51
2023-01-04T14:15:24.150Z,10.53
2023-01-04T14:17:16.005Z,10.54
2023-01-04T14:18:49.191Z,10.51
2023-01-04T14:20:35.351Z,10.48
2023-01-04T14:22:34.425Z,10.45
2023-01-04T14:26:36.149Z,10.45
2023-01-04T14:28:19.624Z,10.41
2023-01-04T14:29:53.034Z,10.38
2023-01-04T16:46:44.319Z,9.65
2023-01-04T16:48:18.732Z,9.60
2023-01-04T16:49:53.273Z,9.61
2023-01-04T16:51:28.751Z,9.59
2023-01-04T16:53:02.392Z,9.45
2023-01-04T16:54:36.102Z,9.44
2023-01-04T16:56:11.691Z,9.46
2023-01-04T16:57:45.652Z,9.45
2023-01-04T16:59:20.336Z,9.40
2023-01-04T17:00:55.864Z,9.43
2023-01-04T17:02:30.639Z,9.46
2023-01-04T17:04:07.900Z,9.45
2023-01-04T17:05:41.494Z,9.51
2023-01-04T17:07:15.412Z,9.47
2023-01-04T17:08:50.538Z,9.40
2023-01-04T17:10:27.612Z,9.37
2023-01-04T17:13:58.331Z,9.34
2023-01-04T17:15:42.904Z,9.37
2023-01-04T17:17:17.393Z,9.37
2023-01-04T17:18:53.232Z,9.38
2023-01-04T17:20:26.425Z,9.41
2023-01-04T17:21:59.727Z,9.41
2023-01-04T17:23:37.018Z,9.42
2023-01-04T17:25:12.779Z,9.39
2023-01-04T17:26:47.151Z,9.37
2023-01-04T17:28:24.825Z,9.33
2023-01-04T17:29:58.974Z,9.34
2023-01-04T17:31:34.463Z,9.39
2023-01-04T17:33:07.883Z,9.40
2023-01-04T17:34:43.114Z,9.42
2023-01-04T17:36:18.965Z,9.42
2023-01-04T17:37:52.649Z,9.42
2023-01-04T17:39:27.098Z,9.43
2023-01-04T17:41:08.466Z,9.39
2023-01-04T17:42:43.847Z,9.39
2023-01-04T17:44:17.129Z,9.42
2023-01-04T17:45:50.796Z,9.44
2023-01-04T17:47:25.351Z,9.49
2023-01-04T17:49:21.614Z,9.51
2023-01-04T17:50:54.502Z,9.47
2023-01-04T17:52:31.257Z,9.50
2023-01-04T17:54:06.435Z,9.48
2023-01-04T17:55:40.215Z,9.55
2023-01-04T17:57:13.853Z,9.54
2023-01-04T17:58:47.860Z,9.43
2023-01-04T18:00:23.090Z,9.50
2023-01-04T18:01:56.676Z,9.49
2023-01-04T18:03:30.077Z,9.49
2023-01-04T18:05:04.015Z,9.57
2023-01-04T18:06:38.697Z,9.60
2023-01-04T18:08:11.915Z,9.64
2023-01-04T18:09:45.530Z,9.64
2023-01-04T18:11:18.938Z,9.62
2023-01-04T18:12:52.621Z,9.63
2023-01-04T18:14:26.463Z,9.66
2023-01-04T18:16:18.895Z,9.64
2023-01-04T18:17:54.198Z,9.58
2023-01-04T18:19:29.364Z,9.55
2023-01-04T18:21:27.370Z,9.48
2023-01-04T18:23:03.423Z,9.56
2023-01-04T18:24:38.407Z,9.54
2023-01-04T18:26:12.736Z,9.54
2023-01-04T18:27:46.190Z,9.55
2023-01-04T18:29:19.870Z,9.56
2023-01-04T18:30:53.310Z,9.60
2023-01-04T18:32:27.600Z,9.61
2023-01-04T18:34:01.113Z,9.62
2023-01-04T18:35:36.596Z,9.58
2023-01-04T18:37:09.808Z,9.59
2023-01-04T18:38:44.952Z,9.57
2023-01-04T18:40:18.537Z,9.61
2023-01-04T18:41:52.131Z,9.61
2023-01-04T18:43:25.739Z,9.61
2023-01-04T18:44:59.336Z,9.62
2023-01-04T18:46:33.130Z,9.63
2023-01-04T18:48:11.484Z,9.64
2023-01-04T18:49:45.280Z,9.63
2023-01-04T18:51:19.047Z,9.67
2023-01-04T18:52:52.385Z,9.68
2023-01-04T18:54:27.241Z,9.73
2023-01-04T18:56:00.813Z,9.75
2023-01-04T18:57:34.237Z,9.73
2023-01-04T18:59:07.701Z,9.74
2023-01-04T19:00:41.153Z,9.74
2023-01-04T19:02:18.421Z,9.74
2023-01-04T19:03:51.871Z,9.73
2023-01-04T19:05:28.167Z,9.76
2023-01-04T19:07:01.946Z,9.78
2023-01-04T19:08:35.690Z,9.82
2023-01-04T19:10:11.021Z,9.82
2023-01-04T19:11:45.852Z,9.80
2023-01-04T19:13:19.193Z,9.78
2023-01-04T19:14:52.785Z,9.77
2023-01-04T19:16:29.956Z,9.75
2023-01-04T19:18:03.617Z,9.78
2023-01-04T19:19:37.520Z,9.78
2023-01-04T19:21:11.362Z,9.80
2023-01-04T19:22:44.631Z,9.81
2023-01-04T19:24:17.978Z,9.76
2023-01-04T19:25:53.272Z,9.66
2023-01-04T19:27:26.590Z,9.60
2023-01-04T19:28:59.899Z,9.52
2023-01-04T19:30:33.202Z,9.49
2023-01-04T19:32:06.928Z,9.43
2023-01-04T19:33:40.457Z,9.44
2023-01-04T19:35:13.893Z,9.46
2023-01-04T19:36:47.466Z,9.49
2023-01-04T19:38:20.651Z,9.49
2023-01-04T19:39:53.809Z,9.46
2023-01-04T19:41:34.283Z,9.49
2023-01-04T19:43:08.187Z,9.45
2023-01-04T19:44:41.436Z,9.50
2023-01-04T19:46:14.970Z,9.52
2023-01-04T19:47:51.362Z,9.54
2023-01-04T19:49:24.838Z,9.57
2023-01-04T19:51:06.709Z,9.54
2023-01-04T19:52:40.135Z,9.52
2023-01-04T19:54:13.794Z,9.50
2023-01-04T19:55:47.219Z,9.46
2023-01-04T19:57:22.197Z,9.39
2023-01-04T19:58:55.522Z,9.43
2023-01-04T20:00:28.901Z,9.44
2023-01-04T20:02:02.283Z,9.48
2023-01-04T20:03:35.995Z,9.46
2023-01-04T20:05:09.950Z,9.44
2023-01-04T20:06:43.172Z,9.42
2023-01-04T20:08:16.630Z,9.42
2023-01-04T20:09:51.123Z,9.36
2023-01-04T20:11:24.272Z,9.35
2023-01-04T20:12:58.889Z,9.39
2023-01-04T20:14:32.490Z,9.38
2023-01-04T20:16:06.568Z,9.37
2023-01-04T20:17:39.800Z,9.35
2023-01-04T20:19:13.005Z,9.30
2023-01-04T20:20:46.753Z,9.27
2023-01-04T20:22:20.079Z,9.28
2023-01-04T20:23:53.347Z,9.28
2023-01-04T20:25:26.507Z,9.26
2023-01-04T20:26:59.974Z,9.24
2023-01-04T20:28:34.785Z,9.17
2023-01-04T20:30:09.535Z,9.22
2023-01-04T20:31:45.758Z,9.22
2023-01-04T20:33:19.444Z,9.19
2023-01-04T20:34:52.647Z,9.15
2023-01-04T20:36:29.428Z,9.10
2023-01-04T20:38:02.524Z,9.07
2023-01-04T20:39:36.031Z,9.02
2023-01-04T20:41:12.152Z,9.00
2023-01-04T20:43:17.072Z,8.98
2023-01-04T20:44:51.821Z,9.01
2023-01-04T20:46:28.491Z,9.01
2023-01-04T20:48:01.946Z,8.95
2023-01-04T20:49:35.201Z,8.97
2023-01-04T20:51:09.350Z,8.94
2023-01-04T20:52:42.555Z,8.91
2023-01-04T20:54:15.859Z,8.88
2023-01-04T20:55:49.018Z,8.92
2023-01-04T20:57:23.192Z,8.89
2023-01-04T20:58:56.731Z,8.91
2023-01-04T21:00:31.222Z,8.90
2023-01-04T21:02:04.770Z,8.88
2023-01-04T21:03:38.736Z,8.85
2023-01-04T21:05:12.077Z,8.80
2023-01-04T21:06:45.257Z,8.80
2023-01-04T21:08:18.404Z,8.80
2023-01-04T21:09:51.883Z,8.81
2023-01-04T21:11:25.181Z,8.78
2023-01-04T21:12:58.429Z,8.73
2023-01-04T21:14:33.588Z,8.70
2023-01-04T21:16:09.164Z,8.68
2023-01-04T21:17:42.361Z,8.71
2023-01-04T21:19:16.260Z,8.72
2023-01-04T21:20:49.534Z,8.69
2023-01-04T21:22:23.950Z,8.70
2023-01-04T21:23:58.168Z,8.70
2023-01-04T21:25:31.398Z,8.73
2023-01-04T21:27:04.723Z,8.70
2023-01-04T21:28:38.175Z,8.67
2023-01-04T21:30:12.931Z,8.66
2023-01-04T21:31:47.449Z,8.65
2023-01-04T21:33:20.589Z,8.65
2023-01-04T21:34:54.249Z,8.64
2023-01-04T21:36:30.664Z,8.63
2023-01-04T21:38:04.094Z,8.64
2023-01-04T21:39:37.632Z,8.57
2023-01-04T21:41:11.674Z,8.62
2023-01-04T21:42:44.832Z,8.61
2023-01-04T21:44:18.086Z,8.62
2023-01-04T21:45:51.584Z,8.61
2023-01-04T21:47:26.313Z,8.54
2023-01-04T21:49:01.759Z,8.49
2023-01-04T21:50:34.957Z,8.48
2023-01-04T21:52:08.546Z,8.48
2023-01-04T21:53:42.756Z,8.48
2023-01-04T21:55:16.233Z,8.47
2023-01-04T21:56:49.538Z,8.46
2023-01-04T21:58:24.612Z,8.45
2023-01-04T21:59:57.762Z,8.39
2023-01-04T22:01:35.175Z,8.28
2023-01-04T22:03:11.802Z,8.18
2023-01-04T22:04:45.973Z,8.14
2023-01-04T22:06:20.688Z,8.15
2023-01-04T22:07:53.901Z,8.14
2023-01-04T22:09:27.157Z,8.14
2023-01-04T22:11:00.863Z,8.12
2023-01-04T22:12:33.961Z,8.08
2023-01-04T22:14:07.129Z,8.05
2023-01-04T22:15:40.705Z,7.97
2023-01-04T22:17:14.373Z,7.91
2023-01-04T22:18:49.857Z,7.83
2023-01-04T22:20:23.122Z,7.79
2023-01-04T22:21:56.296Z,7.74
2023-01-04T22:23:30.975Z,7.66
2023-01-04T22:25:04.174Z,7.57
2023-01-04T22:26:37.356Z,7.55
2023-01-04T22:28:14.770Z,7.53
2023-01-04T22:29:48.229Z,7.47
2023-01-04T22:31:21.454Z,7.41
2023-01-04T22:32:54.859Z,7.34
2023-01-04T22:34:29.692Z,7.29
2023-01-04T22:36:06.218Z,7.25
2023-01-04T22:37:39.381Z,7.22
2023-01-04T22:39:12.600Z,7.19
2023-01-04T22:40:45.913Z,7.15
2023-01-04T22:42:19.664Z,7.11
2023-01-04T22:43:57.575Z,7.09
2023-01-04T22:45:30.758Z,7.03
2023-01-04T22:47:03.985Z,6.94
2023-01-04T22:48:37.592Z,6.91
2023-01-04T22:50:12.587Z,6.86
2023-01-04T22:51:45.865Z,6.78
2023-01-04T22:53:18.283Z,6.75
2023-01-04T22:54:52.173Z,6.70
2023-01-04T22:56:25.787Z,6.63
2023-01-04T22:57:59.008Z,6.61
2023-01-04T22:59:32.102Z,6.57
2023-01-04T23:01:06.279Z,6.55
2023-01-04T23:02:39.640Z,6.53
2023-01-04T23:04:16.598Z,6.50
2023-01-04T23:05:51.189Z,6.43
2023-01-04T23:07:24.430Z,6.37
2023-01-04T23:08:58.761Z,6.31
2023-01-04T23:10:32.942Z,6.25
2023-01-04T23:12:06.555Z,6.24
2023-01-04T23:13:40.487Z,6.20
2023-01-04T23:15:13.943Z,6.15
2023-01-04T23:16:47.507Z,6.09
2023-01-04T23:18:21.288Z,6.05
2023-01-04T23:19:54.646Z,5.98
2023-01-04T23:21:29.264Z,5.97
2023-01-04T23:23:02.386Z,5.96
2023-01-04T23:24:37.944Z,5.92
2023-01-04T23:26:15.861Z,5.91
2023-01-04T23:27:48.986Z,5.87
2023-01-04T23:29:22.176Z,5.77
2023-01-04T23:30:55.334Z,5.75
2023-01-04T23:32:28.874Z,5.70
2023-01-04T23:34:03.874Z,5.66
2023-01-04T23:35:37.108Z,5.60
2023-01-04T23:37:11.584Z,5.58
2023-01-04T23:38:46.250Z,5.51
2023-01-04T23:40:19.513Z,5.47
2023-01-04T23:41:53.340Z,5.43
2023-01-04T23:43:26.524Z,5.37
2023-01-04T23:45:00.138Z,5.34
2023-01-04T23:46:33.267Z,5.29
2023-01-04T23:48:06.649Z,5.35
2023-01-04T23:49:40.439Z,5.38
2023-01-04T23:51:14.433Z,5.36
2023-01-04T23:52:49.247Z,5.34
2023-01-04T23:54:22.819Z,5.35
2023-01-04T23:56:00.242Z,5.36
2023-01-04T23:57:33.786Z,5.33